sensor_id;sensor_type;location;lat;lon;timestamp;pressure;altitude;pressure_sealevel;temperature;humidity
12209;BME280;6167;43.080;25.634;2023-02-22T00:01:55;99455.25;;;10.95;92.72
12209;BME280;6167;43.080;25.634;2023-02-22T00:04:48;99404.34;;;10.54;94.30
12209;BME280;6167;43.080;25.634;2023-02-22T00:07:15;99446.81;;;10.87;94.80
12209;BME280;6167;43.080;25.634;2023-02-22T00:09:45;99446.84;;;11.04;95.76
12209;BME280;6167;43.080;25.634;2023-02-22T00:12:12;99451.53;;;10.99;93.85
12209;BME280;6167;43.080;25.634;2023-02-22T00:14:39;99384.75;;;10.58;94.20
12209;BME280;6167;43.080;25.634;2023-02-22T00:17:07;99446.41;;;11.13;93.12
12209;BME280;6167;43.080;25.634;2023-02-22T00:19:34;99448.88;;;10.99;92.47
12209;BME280;6167;43.080;25.634;2023-02-22T00:22:02;99406.31;;;10.67;93.65
12209;BME280;6167;43.080;25.634;2023-02-22T00:24:31;99447.09;;;10.99;92.25
12209;BME280;6167;43.080;25.634;2023-02-22T00:27:00;99426.56;;;10.86;91.72
12209;BME280;6167;43.080;25.634;2023-02-22T00:29:27;99421.97;;;10.72;92.74
12209;BME280;6167;43.080;25.634;2023-02-22T00:31:54;99448.97;;;10.97;92.15
12209;BME280;6167;43.080;25.634;2023-02-22T00:34:21;99449.75;;;10.62;89.88
12209;BME280;6167;43.080;25.634;2023-02-22T00:36:49;99443.19;;;10.52;96.00
12209;BME280;6167;43.080;25.634;2023-02-22T00:39:17;99443.84;;;10.57;99.83
12209;BME280;6167;43.080;25.634;2023-02-22T00:41:45;99437.47;;;10.42;100.00
12209;BME280;6167;43.080;25.634;2023-02-22T00:44:12;99433.22;;;10.19;100.00
12209;BME280;6167;43.080;25.634;2023-02-22T00:46:40;99439.19;;;10.43;100.00
12209;BME280;6167;43.080;25.634;2023-02-22T00:49:07;99430.19;;;10.28;100.00
12209;BME280;6167;43.080;25.634;2023-02-22T00:51:34;99421.53;;;10.05;100.00
12209;BME280;6167;43.080;25.634;2023-02-22T00:54:01;99402.19;;;10.04;100.00
12209;BME280;6167;43.080;25.634;2023-02-22T00:56:31;99426.88;;;10.23;100.00
12209;BME280;6167;43.080;25.634;2023-02-22T00:58:59;99442.09;;;9.98;100.00
12209;BME280;6167;43.080;25.634;2023-02-22T01:01:26;99433.13;;;9.82;100.00
12209;BME280;6167;43.080;25.634;2023-02-22T01:03:53;99442.78;;;9.83;100.00
12209;BME280;6167;43.080;25.634;2023-02-22T01:06:20;99425.41;;;9.57;100.00
12209;BME280;6167;43.080;25.634;2023-02-22T01:08:47;99444.97;;;9.73;100.00
12209;BME280;6167;43.080;25.634;2023-02-22T01:11:16;99404.09;;;9.41;100.00
12209;BME280;6167;43.080;25.634;2023-02-22T01:13:44;99445.88;;;9.52;100.00
12209;BME280;6167;43.080;25.634;2023-02-22T01:16:14;99396.75;;;9.07;100.00
12209;BME280;6167;43.080;25.634;2023-02-22T01:18:42;99440.78;;;9.47;100.00
12209;BME280;6167;43.080;25.634;2023-02-22T01:21:09;99441.56;;;9.29;100.00
12209;BME280;6167;43.080;25.634;2023-02-22T01:23:38;99437.06;;;9.11;100.00
12209;BME280;6167;43.080;25.634;2023-02-22T01:26:05;99410.00;;;9.06;100.00
12209;BME280;6167;43.080;25.634;2023-02-22T01:28:33;99445.66;;;9.36;100.00
12209;BME280;6167;43.080;25.634;2023-02-22T01:31:01;99431.84;;;9.09;100.00
12209;BME280;6167;43.080;25.634;2023-02-22T01:33:29;99449.28;;;9.13;100.00
12209;BME280;6167;43.080;25.634;2023-02-22T01:35:56;99448.94;;;9.21;100.00
12209;BME280;6167;43.080;25.634;2023-02-22T01:38:24;99431.63;;;8.93;100.00
12209;BME280;6167;43.080;25.634;2023-02-22T01:40:51;99451.97;;;8.90;100.00
12209;BME280;6167;43.080;25.634;2023-02-22T01:43:20;99452.25;;;9.04;100.00
12209;BME280;6167;43.080;25.634;2023-02-22T01:45:59;99418.03;;;9.03;100.00
12209;BME280;6167;43.080;25.634;2023-02-22T01:48:34;99433.97;;;9.00;100.00
12209;BME280;6167;43.080;25.634;2023-02-22T01:51:07;99446.75;;;9.10;100.00
12209;BME280;6167;43.080;25.634;2023-02-22T01:53:41;99448.81;;;9.02;100.00
12209;BME280;6167;43.080;25.634;2023-02-22T01:56:11;99443.25;;;8.88;100.00
12209;BME280;6167;43.080;25.634;2023-02-22T01:58:42;99419.53;;;8.66;100.00
12209;BME280;6167;43.080;25.634;2023-02-22T02:01:11;99437.53;;;8.99;100.00
12209;BME280;6167;43.080;25.634;2023-02-22T02:03:41;99437.94;;;8.89;100.00
12209;BME280;6167;43.080;25.634;2023-02-22T02:06:12;99444.59;;;8.76;100.00
12209;BME280;6167;43.080;25.634;2023-02-22T02:08:47;99422.63;;;8.76;100.00
12209;BME280;6167;43.080;25.634;2023-02-22T02:11:18;99379.34;;;8.38;100.00
12209;BME280;6167;43.080;25.634;2023-02-22T02:13:45;99439.66;;;8.45;100.00
12209;BME280;6167;43.080;25.634;2023-02-22T02:16:12;99441.56;;;8.42;100.00
12209;BME280;6167;43.080;25.634;2023-02-22T02:18:41;99447.19;;;8.54;100.00
12209;BME280;6167;43.080;25.634;2023-02-22T02:24:44;99454.84;;;8.39;100.00
12209;BME280;6167;43.080;25.634;2023-02-22T02:27:18;99437.84;;;8.47;100.00
12209;BME280;6167;43.080;25.634;2023-02-22T02:32:58;99456.88;;;8.54;100.00
12209;BME280;6167;43.080;25.634;2023-02-22T02:35:37;99456.47;;;8.65;100.00
12209;BME280;6167;43.080;25.634;2023-02-22T02:38:10;99455.38;;;8.70;100.00
12209;BME280;6167;43.080;25.634;2023-02-22T02:40:46;99457.03;;;8.51;100.00
12209;BME280;6167;43.080;25.634;2023-02-22T02:43:18;99451.03;;;8.69;100.00
12209;BME280;6167;43.080;25.634;2023-02-22T02:45:50;99445.44;;;8.77;100.00
12209;BME280;6167;43.080;25.634;2023-02-22T02:48:25;99446.06;;;8.61;100.00
12209;BME280;6167;43.080;25.634;2023-02-22T02:50:55;99450.28;;;8.66;100.00
12209;BME280;6167;43.080;25.634;2023-02-22T02:53:25;99453.63;;;8.71;100.00
12209;BME280;6167;43.080;25.634;2023-02-22T02:55:53;99449.78;;;8.56;100.00
12209;BME280;6167;43.080;25.634;2023-02-22T02:58:21;99456.28;;;8.22;100.00
12209;BME280;6167;43.080;25.634;2023-02-22T03:00:52;99439.31;;;8.31;100.00
12209;BME280;6167;43.080;25.634;2023-02-22T03:03:44;99445.88;;;8.19;100.00
12209;BME280;6167;43.080;25.634;2023-02-22T03:06:29;99453.06;;;8.14;100.00
12209;BME280;6167;43.080;25.634;2023-02-22T03:09:05;99447.16;;;8.09;100.00
12209;BME280;6167;43.080;25.634;2023-02-22T03:11:41;99435.56;;;8.13;100.00
12209;BME280;6167;43.080;25.634;2023-02-22T03:14:17;99449.09;;;8.27;100.00
12209;BME280;6167;43.080;25.634;2023-02-22T03:16:51;99460.38;;;8.31;100.00
12209;BME280;6167;43.080;25.634;2023-02-22T03:19:27;99438.06;;;8.41;100.00
12209;BME280;6167;43.080;25.634;2023-02-22T03:22:01;99455.31;;;8.50;100.00
12209;BME280;6167;43.080;25.634;2023-02-22T03:24:34;99458.44;;;8.36;100.00
12209;BME280;6167;43.080;25.634;2023-02-22T03:27:05;99460.56;;;8.50;100.00
12209;BME280;6167;43.080;25.634;2023-02-22T03:29:37;99452.72;;;8.48;100.00
12209;BME280;6167;43.080;25.634;2023-02-22T03:32:08;99462.97;;;8.33;100.00
12209;BME280;6167;43.080;25.634;2023-02-22T03:34:41;99458.56;;;8.32;100.00
12209;BME280;6167;43.080;25.634;2023-02-22T03:37:13;99448.22;;;8.27;100.00
12209;BME280;6167;43.080;25.634;2023-02-22T03:39:41;99447.47;;;8.23;100.00
12209;BME280;6167;43.080;25.634;2023-02-22T03:42:13;99460.69;;;7.99;100.00
12209;BME280;6167;43.080;25.634;2023-02-22T03:44:44;99449.50;;;7.92;100.00
12209;BME280;6167;43.080;25.634;2023-02-22T03:47:14;99464.81;;;8.06;100.00
12209;BME280;6167;43.080;25.634;2023-02-22T03:49:48;99460.09;;;7.90;100.00
12209;BME280;6167;43.080;25.634;2023-02-22T03:52:17;99462.84;;;7.87;100.00
12209;BME280;6167;43.080;25.634;2023-02-22T03:54:44;99458.25;;;7.92;100.00
12209;BME280;6167;43.080;25.634;2023-02-22T03:57:15;99434.09;;;7.81;100.00
12209;BME280;6167;43.080;25.634;2023-02-22T03:59:44;99459.31;;;7.64;100.00
12209;BME280;6167;43.080;25.634;2023-02-22T04:02:11;99450.22;;;7.72;100.00
12209;BME280;6167;43.080;25.634;2023-02-22T04:04:38;99452.44;;;7.84;100.00
12209;BME280;6167;43.080;25.634;2023-02-22T04:07:06;99457.00;;;7.79;100.00
12209;BME280;6167;43.080;25.634;2023-02-22T04:09:33;99459.25;;;7.65;100.00
12209;BME280;6167;43.080;25.634;2023-02-22T04:12:00;99466.34;;;7.88;100.00
12209;BME280;6167;43.080;25.634;2023-02-22T04:14:28;99442.09;;;7.78;100.00
12209;BME280;6167;43.080;25.634;2023-02-22T04:16:55;99467.31;;;7.85;100.00
12209;BME280;6167;43.080;25.634;2023-02-22T04:19:23;99463.97;;;7.80;100.00
12209;BME280;6167;43.080;25.634;2023-02-22T04:21:50;99469.50;;;7.98;100.00
12209;BME280;6167;43.080;25.634;2023-02-22T04:24:18;99464.44;;;7.91;100.00
12209;BME280;6167;43.080;25.634;2023-02-22T04:26:45;99467.91;;;7.69;100.00
12209;BME280;6167;43.080;25.634;2023-02-22T04:29:12;99486.31;;;7.69;100.00
12209;BME280;6167;43.080;25.634;2023-02-22T04:31:39;99463.00;;;7.83;100.00
12209;BME280;6167;43.080;25.634;2023-02-22T04:34:06;99468.16;;;7.86;100.00
12209;BME280;6167;43.080;25.634;2023-02-22T04:36:32;99469.88;;;7.87;100.00
12209;BME280;6167;43.080;25.634;2023-02-22T04:38:59;99470.25;;;8.01;100.00
12209;BME280;6167;43.080;25.634;2023-02-22T04:41:28;99443.31;;;7.93;100.00
12209;BME280;6167;43.080;25.634;2023-02-22T04:43:55;99457.09;;;8.01;100.00
12209;BME280;6167;43.080;25.634;2023-02-22T04:46:23;99470.59;;;8.15;100.00
12209;BME280;6167;43.080;25.634;2023-02-22T04:48:51;99477.75;;;8.37;100.00
12209;BME280;6167;43.080;25.634;2023-02-22T04:51:17;99467.81;;;8.20;100.00
12209;BME280;6167;43.080;25.634;2023-02-22T04:53:45;99472.88;;;8.01;100.00
12209;BME280;6167;43.080;25.634;2023-02-22T04:56:12;99470.16;;;8.04;100.00
12209;BME280;6167;43.080;25.634;2023-02-22T04:58:40;99476.72;;;8.16;100.00
12209;BME280;6167;43.080;25.634;2023-02-22T05:01:07;99466.06;;;7.96;100.00
12209;BME280;6167;43.080;25.634;2023-02-22T05:03:36;99470.91;;;7.83;100.00
12209;BME280;6167;43.080;25.634;2023-02-22T05:06:03;99468.56;;;7.99;100.00
12209;BME280;6167;43.080;25.634;2023-02-22T05:08:30;99479.81;;;8.04;100.00
12209;BME280;6167;43.080;25.634;2023-02-22T05:10:57;99472.44;;;8.13;100.00
12209;BME280;6167;43.080;25.634;2023-02-22T05:13:24;99475.59;;;8.23;100.00
12209;BME280;6167;43.080;25.634;2023-02-22T05:15:53;99476.94;;;8.35;100.00
12209;BME280;6167;43.080;25.634;2023-02-22T05:18:19;99470.97;;;8.30;100.00
12209;BME280;6167;43.080;25.634;2023-02-22T05:20:46;99475.09;;;8.12;100.00
12209;BME280;6167;43.080;25.634;2023-02-22T05:23:13;99476.72;;;8.16;100.00
12209;BME280;6167;43.080;25.634;2023-02-22T05:25:43;99477.63;;;8.40;100.00
12209;BME280;6167;43.080;25.634;2023-02-22T05:28:11;99471.13;;;8.25;100.00
12209;BME280;6167;43.080;25.634;2023-02-22T05:30:40;99481.03;;;8.18;100.00
12209;BME280;6167;43.080;25.634;2023-02-22T05:33:09;99484.28;;;8.50;100.00
12209;BME280;6167;43.080;25.634;2023-02-22T05:35:37;99487.91;;;8.92;100.00
12209;BME280;6167;43.080;25.634;2023-02-22T05:38:05;99481.91;;;9.11;100.00
12209;BME280;6167;43.080;25.634;2023-02-22T05:40:32;99480.13;;;9.53;100.00
12209;BME280;6167;43.080;25.634;2023-02-22T05:42:59;99490.06;;;10.48;100.00
12209;BME280;6167;43.080;25.634;2023-02-22T05:45:28;99491.28;;;10.79;100.00
12209;BME280;6167;43.080;25.634;2023-02-22T05:47:55;99490.06;;;10.67;100.00
12209;BME280;6167;43.080;25.634;2023-02-22T05:50:25;99492.94;;;11.36;100.00
12209;BME280;6167;43.080;25.634;2023-02-22T05:52:52;99481.66;;;12.19;96.69
12209;BME280;6167;43.080;25.634;2023-02-22T05:55:21;99492.72;;;13.07;84.97
12209;BME280;6167;43.080;25.634;2023-02-22T05:57:49;99495.47;;;13.05;76.77
12209;BME280;6167;43.080;25.634;2023-02-22T06:00:22;99495.50;;;13.51;77.47
12209;BME280;6167;43.080;25.634;2023-02-22T06:02:53;99488.06;;;14.02;69.68
12209;BME280;6167;43.080;25.634;2023-02-22T06:05:23;99496.38;;;13.82;66.39
12209;BME280;6167;43.080;25.634;2023-02-22T06:07:53;99503.38;;;13.53;69.07
12209;BME280;6167;43.080;25.634;2023-02-22T06:10:20;99501.00;;;13.78;69.90
12209;BME280;6167;43.080;25.634;2023-02-22T06:12:47;99502.28;;;14.31;64.77
12209;BME280;6167;43.080;25.634;2023-02-22T06:15:15;99509.44;;;14.73;64.18
12209;BME280;6167;43.080;25.634;2023-02-22T06:17:43;99508.94;;;15.36;59.10
12209;BME280;6167;43.080;25.634;2023-02-22T06:20:10;99508.19;;;16.26;56.90
12209;BME280;6167;43.080;25.634;2023-02-22T06:22:40;99501.38;;;16.34;55.56
12209;BME280;6167;43.080;25.634;2023-02-22T06:25:08;99509.59;;;16.69;56.76
12209;BME280;6167;43.080;25.634;2023-02-22T06:27:36;99508.38;;;17.59;57.97
12209;BME280;6167;43.080;25.634;2023-02-22T06:30:03;99501.84;;;17.87;50.74
12209;BME280;6167;43.080;25.634;2023-02-22T06:32:31;99495.63;;;18.55;50.89
12209;BME280;6167;43.080;25.634;2023-02-22T06:34:58;99509.13;;;19.20;48.74
12209;BME280;6167;43.080;25.634;2023-02-22T06:37:25;99509.13;;;19.20;50.50
12209;BME280;6167;43.080;25.634;2023-02-22T06:39:53;99509.97;;;19.32;51.43
12209;BME280;6167;43.080;25.634;2023-02-22T06:42:20;99505.91;;;19.92;46.66
12209;BME280;6167;43.080;25.634;2023-02-22T06:44:47;99506.88;;;20.12;44.58
12209;BME280;6167;43.080;25.634;2023-02-22T06:47:15;99510.47;;;20.01;46.89
12209;BME280;6167;43.080;25.634;2023-02-22T06:49:42;99508.66;;;19.27;44.71
12209;BME280;6167;43.080;25.634;2023-02-22T06:52:09;99508.09;;;19.87;45.79
12209;BME280;6167;43.080;25.634;2023-02-22T06:54:37;99497.94;;;20.74;44.16
12209;BME280;6167;43.080;25.634;2023-02-22T06:57:05;99510.13;;;21.18;43.24
12209;BME280;6167;43.080;25.634;2023-02-22T06:59:34;99500.97;;;20.59;41.81
12209;BME280;6167;43.080;25.634;2023-02-22T07:02:01;99506.41;;;20.28;43.67
12209;BME280;6167;43.080;25.634;2023-02-22T07:04:28;99509.88;;;19.22;44.80
12209;BME280;6167;43.080;25.634;2023-02-22T07:06:55;99501.47;;;19.16;45.68
12209;BME280;6167;43.080;25.634;2023-02-22T07:09:22;99501.28;;;19.40;48.27
12209;BME280;6167;43.080;25.634;2023-02-22T07:11:49;99496.22;;;19.26;46.35
12209;BME280;6167;43.080;25.634;2023-02-22T07:14:18;99489.31;;;19.12;46.93
12209;BME280;6167;43.080;25.634;2023-02-22T07:16:44;99482.94;;;19.24;44.78
12209;BME280;6167;43.080;25.634;2023-02-22T07:19:11;99484.13;;;18.88;45.59
12209;BME280;6167;43.080;25.634;2023-02-22T07:21:38;99481.19;;;19.98;44.54
12209;BME280;6167;43.080;25.634;2023-02-22T07:24:06;99476.16;;;20.46;43.16
12209;BME280;6167;43.080;25.634;2023-02-22T07:26:37;99489.09;;;19.36;44.13
12209;BME280;6167;43.080;25.634;2023-02-22T07:29:04;99470.28;;;20.11;43.41
12209;BME280;6167;43.080;25.634;2023-02-22T07:31:35;99477.75;;;20.07;42.35
12209;BME280;6167;43.080;25.634;2023-02-22T07:34:02;99482.47;;;20.36;43.17
12209;BME280;6167;43.080;25.634;2023-02-22T07:36:29;99473.28;;;20.17;43.15
12209;BME280;6167;43.080;25.634;2023-02-22T07:38:56;99482.53;;;19.40;42.88
12209;BME280;6167;43.080;25.634;2023-02-22T07:41:24;99482.84;;;19.58;43.91
12209;BME280;6167;43.080;25.634;2023-02-22T07:43:52;99500.91;;;18.90;45.14
12209;BME280;6167;43.080;25.634;2023-02-22T07:46:19;99496.03;;;19.49;44.33
12209;BME280;6167;43.080;25.634;2023-02-22T07:49:15;99479.69;;;19.64;44.71
12209;BME280;6167;43.080;25.634;2023-02-22T07:51:42;99498.69;;;19.06;43.99
12209;BME280;6167;43.080;25.634;2023-02-22T07:54:09;99486.91;;;18.75;44.80
12209;BME280;6167;43.080;25.634;2023-02-22T07:56:46;99487.16;;;19.49;44.09
12209;BME280;6167;43.080;25.634;2023-02-22T07:59:14;99476.63;;;19.14;45.15
12209;BME280;6167;43.080;25.634;2023-02-22T08:01:41;99489.94;;;19.90;45.99
12209;BME280;6167;43.080;25.634;2023-02-22T08:04:09;99472.16;;;19.78;43.61
12209;BME280;6167;43.080;25.634;2023-02-22T08:06:36;99479.06;;;20.34;45.05
12209;BME280;6167;43.080;25.634;2023-02-22T08:09:03;99472.91;;;20.73;41.96
12209;BME280;6167;43.080;25.634;2023-02-22T08:11:30;99486.91;;;20.46;42.90
12209;BME280;6167;43.080;25.634;2023-02-22T08:13:56;99485.00;;;21.48;42.26
12209;BME280;6167;43.080;25.634;2023-02-22T08:16:23;99483.31;;;21.47;41.39
12209;BME280;6167;43.080;25.634;2023-02-22T08:18:51;99475.09;;;21.39;41.15
12209;BME280;6167;43.080;25.634;2023-02-22T08:21:19;99471.25;;;21.41;40.71
12209;BME280;6167;43.080;25.634;2023-02-22T08:23:50;99478.78;;;21.67;40.44
12209;BME280;6167;43.080;25.634;2023-02-22T08:26:17;99489.09;;;21.42;40.69
12209;BME280;6167;43.080;25.634;2023-02-22T08:28:45;99487.56;;;21.69;40.54
12209;BME280;6167;43.080;25.634;2023-02-22T08:31:12;99485.38;;;21.24;40.92
12209;BME280;6167;43.080;25.634;2023-02-22T08:33:38;99482.91;;;22.00;40.32
12209;BME280;6167;43.080;25.634;2023-02-22T08:36:06;99483.88;;;21.01;42.43
12209;BME280;6167;43.080;25.634;2023-02-22T08:38:35;99480.38;;;21.79;40.16
12209;BME280;6167;43.080;25.634;2023-02-22T08:41:02;99490.94;;;20.92;41.58
12209;BME280;6167;43.080;25.634;2023-02-22T08:43:29;99476.69;;;20.19;42.50
12209;BME280;6167;43.080;25.634;2023-02-22T08:45:55;99479.59;;;21.29;41.65
12209;BME280;6167;43.080;25.634;2023-02-22T08:48:22;99453.44;;;21.31;41.36
12209;BME280;6167;43.080;25.634;2023-02-22T08:50:49;99471.84;;;21.64;40.74
12209;BME280;6167;43.080;25.634;2023-02-22T08:53:17;99474.09;;;21.88;40.66
12209;BME280;6167;43.080;25.634;2023-02-22T08:55:45;99484.00;;;21.49;40.64
12209;BME280;6167;43.080;25.634;2023-02-22T08:58:14;99482.25;;;20.28;42.63
12209;BME280;6167;43.080;25.634;2023-02-22T09:00:41;99474.25;;;20.16;43.00
12209;BME280;6167;43.080;25.634;2023-02-22T09:03:11;99473.91;;;20.72;42.91
12209;BME280;6167;43.080;25.634;2023-02-22T09:05:39;99476.19;;;20.86;41.46
12209;BME280;6167;43.080;25.634;2023-02-22T09:08:06;99471.66;;;21.27;41.33
12209;BME280;6167;43.080;25.634;2023-02-22T09:10:33;99475.63;;;20.83;41.42
12209;BME280;6167;43.080;25.634;2023-02-22T09:13:03;99480.19;;;21.32;41.32
12209;BME280;6167;43.080;25.634;2023-02-22T09:15:31;99477.50;;;21.51;40.79
12209;BME280;6167;43.080;25.634;2023-02-22T09:17:58;99474.19;;;20.79;41.66
12209;BME280;6167;43.080;25.634;2023-02-22T09:20:26;99477.00;;;21.17;41.85
12209;BME280;6167;43.080;25.634;2023-02-22T09:22:54;99475.72;;;21.12;41.43
12209;BME280;6167;43.080;25.634;2023-02-22T09:25:21;99473.81;;;20.53;42.30
12209;BME280;6167;43.080;25.634;2023-02-22T09:27:49;99479.13;;;20.43;42.28
12209;BME280;6167;43.080;25.634;2023-02-22T09:30:23;99469.75;;;21.08;41.38
12209;BME280;6167;43.080;25.634;2023-02-22T09:32:52;99465.72;;;21.23;41.64
12209;BME280;6167;43.080;25.634;2023-02-22T09:35:20;99461.59;;;21.19;41.46
12209;BME280;6167;43.080;25.634;2023-02-22T09:37:52;99458.25;;;21.46;41.43
12209;BME280;6167;43.080;25.634;2023-02-22T09:40:19;99461.81;;;21.56;40.32
12209;BME280;6167;43.080;25.634;2023-02-22T09:43:12;99464.63;;;21.55;40.42
12209;BME280;6167;43.080;25.634;2023-02-22T09:45:53;99453.66;;;20.68;41.70
12209;BME280;6167;43.080;25.634;2023-02-22T09:48:24;99456.13;;;20.90;41.87
12209;BME280;6167;43.080;25.634;2023-02-22T09:50:53;99458.63;;;21.22;41.76
12209;BME280;6167;43.080;25.634;2023-02-22T09:53:27;99461.78;;;21.27;41.60
12209;BME280;6167;43.080;25.634;2023-02-22T09:56:00;99453.72;;;21.85;39.93
12209;BME280;6167;43.080;25.634;2023-02-22T09:58:31;99435.44;;;21.89;39.56
12209;BME280;6167;43.080;25.634;2023-02-22T10:01:13;99448.06;;;21.69;40.23
12209;BME280;6167;43.080;25.634;2023-02-22T10:03:48;99437.59;;;21.37;40.79
12209;BME280;6167;43.080;25.634;2023-02-22T10:06:19;99432.75;;;21.41;40.56
12209;BME280;6167;43.080;25.634;2023-02-22T10:08:47;99433.91;;;21.29;40.84
12209;BME280;6167;43.080;25.634;2023-02-22T10:11:30;99429.66;;;21.74;40.50
12209;BME280;6167;43.080;25.634;2023-02-22T10:14:08;99425.75;;;22.25;40.14
12209;BME280;6167;43.080;25.634;2023-02-22T10:16:47;99435.59;;;22.53;39.00
12209;BME280;6167;43.080;25.634;2023-02-22T10:19:23;99424.25;;;21.93;39.88
12209;BME280;6167;43.080;25.634;2023-02-22T10:24:56;99422.69;;;21.91;38.66
12209;BME280;6167;43.080;25.634;2023-02-22T10:27:29;99398.16;;;22.13;38.80
12209;BME280;6167;43.080;25.634;2023-02-22T10:30:02;99416.44;;;22.56;38.34
12209;BME280;6167;43.080;25.634;2023-02-22T10:32:41;99397.88;;;22.16;38.74
12209;BME280;6167;43.080;25.634;2023-02-22T10:35:20;99404.34;;;23.15;38.33
12209;BME280;6167;43.080;25.634;2023-02-22T10:37:49;99400.16;;;22.76;38.08
12209;BME280;6167;43.080;25.634;2023-02-22T10:40:20;99398.50;;;23.02;38.26
12209;BME280;6167;43.080;25.634;2023-02-22T10:42:57;99391.38;;;22.74;37.78
12209;BME280;6167;43.080;25.634;2023-02-22T10:45:27;99389.19;;;22.59;38.27
12209;BME280;6167;43.080;25.634;2023-02-22T10:48:00;99389.78;;;22.53;37.75
12209;BME280;6167;43.080;25.634;2023-02-22T10:50:34;99365.16;;;22.11;38.56
12209;BME280;6167;43.080;25.634;2023-02-22T10:53:02;99371.34;;;22.58;38.21
12209;BME280;6167;43.080;25.634;2023-02-22T10:55:29;99382.06;;;22.41;38.22
12209;BME280;6167;43.080;25.634;2023-02-22T10:58:02;99386.34;;;22.24;38.24
12209;BME280;6167;43.080;25.634;2023-02-22T11:00:33;99377.44;;;21.57;38.84
12209;BME280;6167;43.080;25.634;2023-02-22T11:03:05;99394.00;;;21.34;39.14
12209;BME280;6167;43.080;25.634;2023-02-22T11:05:43;99383.44;;;21.02;40.34
12209;BME280;6167;43.080;25.634;2023-02-22T11:08:24;99392.72;;;21.38;39.07
12209;BME280;6167;43.080;25.634;2023-02-22T11:10:54;99380.53;;;21.82;38.79
12209;BME280;6167;43.080;25.634;2023-02-22T11:13:27;99375.59;;;21.48;39.62
12209;BME280;6167;43.080;25.634;2023-02-22T11:15:56;99373.69;;;21.97;38.89
12209;BME280;6167;43.080;25.634;2023-02-22T11:18:28;99374.34;;;22.18;38.54
12209;BME280;6167;43.080;25.634;2023-02-22T11:21:02;99373.97;;;22.41;39.42
12209;BME280;6167;43.080;25.634;2023-02-22T11:23:29;99363.22;;;22.31;39.79
12209;BME280;6167;43.080;25.634;2023-02-22T11:26:03;99366.91;;;22.40;38.59
12209;BME280;6167;43.080;25.634;2023-02-22T11:28:31;99367.84;;;22.11;39.57
12209;BME280;6167;43.080;25.634;2023-02-22T11:31:10;99365.00;;;22.13;38.64
12209;BME280;6167;43.080;25.634;2023-02-22T11:33:47;99353.50;;;21.45;39.25
12209;BME280;6167;43.080;25.634;2023-02-22T11:36:31;99348.72;;;21.29;40.23
12209;BME280;6167;43.080;25.634;2023-02-22T11:38:58;99352.75;;;21.72;39.76
12209;BME280;6167;43.080;25.634;2023-02-22T11:41:26;99350.13;;;22.09;38.91
12209;BME280;6167;43.080;25.634;2023-02-22T11:43:54;99348.63;;;21.87;38.78
12209;BME280;6167;43.080;25.634;2023-02-22T11:46:39;99354.13;;;22.05;39.13
12209;BME280;6167;43.080;25.634;2023-02-22T11:49:10;99348.94;;;21.74;39.10
12209;BME280;6167;43.080;25.634;2023-02-22T11:51:46;99353.97;;;21.40;39.75
12209;BME280;6167;43.080;25.634;2023-02-22T11:54:36;99344.69;;;21.62;39.57
12209;BME280;6167;43.080;25.634;2023-02-22T11:57:18;99327.63;;;21.34;39.53
12209;BME280;6167;43.080;25.634;2023-02-22T12:00:01;99333.84;;;21.25;40.63
12209;BME280;6167;43.080;25.634;2023-02-22T12:02:48;99324.66;;;21.27;40.63
12209;BME280;6167;43.080;25.634;2023-02-22T12:05:29;99341.94;;;21.91;39.96
12209;BME280;6167;43.080;25.634;2023-02-22T12:08:10;99338.75;;;21.68;39.78
12209;BME280;6167;43.080;25.634;2023-02-22T12:10:50;99340.34;;;22.17;39.48
12209;BME280;6167;43.080;25.634;2023-02-22T12:13:31;99346.13;;;21.66;39.79
12209;BME280;6167;43.080;25.634;2023-02-22T12:16:10;99345.72;;;21.51;39.76
12209;BME280;6167;43.080;25.634;2023-02-22T12:18:56;99341.91;;;21.35;40.37
12209;BME280;6167;43.080;25.634;2023-02-22T12:21:33;99332.38;;;21.69;40.27
12209;BME280;6167;43.080;25.634;2023-02-22T12:24:05;99333.41;;;21.58;40.33
12209;BME280;6167;43.080;25.634;2023-02-22T12:26:36;99310.63;;;21.43;40.32
12209;BME280;6167;43.080;25.634;2023-02-22T12:29:10;99308.91;;;21.42;40.66
12209;BME280;6167;43.080;25.634;2023-02-22T12:31:42;99325.47;;;21.57;40.32
12209;BME280;6167;43.080;25.634;2023-02-22T12:34:19;99324.81;;;21.36;41.20
12209;BME280;6167;43.080;25.634;2023-02-22T12:36:55;99312.03;;;21.18;41.16
12209;BME280;6167;43.080;25.634;2023-02-22T12:39:40;99319.19;;;21.76;40.68
12209;BME280;6167;43.080;25.634;2023-02-22T12:42:16;99311.56;;;21.81;40.29
12209;BME280;6167;43.080;25.634;2023-02-22T12:44:46;99325.34;;;22.05;40.37
12209;BME280;6167;43.080;25.634;2023-02-22T12:47:21;99325.75;;;22.20;40.11
12209;BME280;6167;43.080;25.634;2023-02-22T12:49:56;99311.22;;;21.37;41.83
12209;BME280;6167;43.080;25.634;2023-02-22T12:52:36;99324.63;;;20.99;42.24
12209;BME280;6167;43.080;25.634;2023-02-22T12:55:10;99322.22;;;21.15;42.15
12209;BME280;6167;43.080;25.634;2023-02-22T12:57:45;99318.13;;;20.91;42.53
12209;BME280;6167;43.080;25.634;2023-02-22T13:00:16;99299.03;;;20.95;42.34
12209;BME280;6167;43.080;25.634;2023-02-22T13:02:53;99313.88;;;21.47;42.26
12209;BME280;6167;43.080;25.634;2023-02-22T13:05:22;99308.03;;;21.71;42.32
12209;BME280;6167;43.080;25.634;2023-02-22T13:08:01;99314.00;;;21.07;42.72
12209;BME280;6167;43.080;25.634;2023-02-22T13:10:56;99309.59;;;20.67;43.10
12209;BME280;6167;43.080;25.634;2023-02-22T13:13:34;99304.25;;;21.06;42.63
12209;BME280;6167;43.080;25.634;2023-02-22T13:16:09;99313.19;;;21.25;42.57
12209;BME280;6167;43.080;25.634;2023-02-22T13:18:45;99292.22;;;21.00;42.55
12209;BME280;6167;43.080;25.634;2023-02-22T13:21:22;99302.28;;;20.98;42.72
12209;BME280;6167;43.080;25.634;2023-02-22T13:24:00;99312.84;;;20.80;42.99
12209;BME280;6167;43.080;25.634;2023-02-22T13:26:34;99308.94;;;20.94;43.03
12209;BME280;6167;43.080;25.634;2023-02-22T13:29:09;99310.06;;;21.30;42.40